sensor_id;sensor_type;location;lat;lon;timestamp;temperature;humidity
76168;DHT22;64927;48.214;16.378;2023-05-25T00:00:27;15.90;64.90
76168;DHT22;64927;48.214;16.378;2023-05-25T00:02:53;16.00;64.70
76168;DHT22;64927;48.214;16.378;2023-05-25T00:05:19;16.00;64.60
76168;DHT22;64927;48.214;16.378;2023-05-25T00:07:45;16.00;64.70
76168;DHT22;64927;48.214;16.378;2023-05-25T00:10:11;15.90;64.50
76168;DHT22;64927;48.214;16.378;2023-05-25T00:12:37;15.90;64.40
76168;DHT22;64927;48.214;16.378;2023-05-25T00:15:04;16.00;64.40
76168;DHT22;64927;48.214;16.378;2023-05-25T00:17:30;16.00;63.80
76168;DHT22;64927;48.214;16.378;2023-05-25T00:19:57;16.00;63.70
76168;DHT22;64927;48.214;16.378;2023-05-25T00:22:38;16.10;63.20
76168;DHT22;64927;48.214;16.378;2023-05-25T00:25:04;16.10;64.00
76168;DHT22;64927;48.214;16.378;2023-05-25T00:27:30;16.10;62.60
76168;DHT22;64927;48.214;16.378;2023-05-25T00:29:57;16.00;62.90
76168;DHT22;64927;48.214;16.378;2023-05-25T00:32:22;16.10;62.60
76168;DHT22;64927;48.214;16.378;2023-05-25T00:34:48;16.20;62.10
76168;DHT22;64927;48.214;16.378;2023-05-25T00:37:16;16.10;62.10
76168;DHT22;64927;48.214;16.378;2023-05-25T00:39:42;16.10;62.10
76168;DHT22;64927;48.214;16.378;2023-05-25T00:42:10;16.20;61.60
76168;DHT22;64927;48.214;16.378;2023-05-25T00:44:36;16.10;61.90
76168;DHT22;64927;48.214;16.378;2023-05-25T00:47:02;15.90;63.00
76168;DHT22;64927;48.214;16.378;2023-05-25T00:49:30;15.80;62.40
76168;DHT22;64927;48.214;16.378;2023-05-25T00:51:57;15.80;62.40
76168;DHT22;64927;48.214;16.378;2023-05-25T00:54:22;15.70;62.50
76168;DHT22;64927;48.214;16.378;2023-05-25T00:57:03;15.80;62.40
76168;DHT22;64927;48.214;16.378;2023-05-25T00:59:44;15.90;62.20
76168;DHT22;64927;48.214;16.378;2023-05-25T01:02:13;15.90;61.90
76168;DHT22;64927;48.214;16.378;2023-05-25T01:04:51;15.80;62.20
76168;DHT22;64927;48.214;16.378;2023-05-25T01:07:22;15.80;62.00
76168;DHT22;64927;48.214;16.378;2023-05-25T01:09:56;15.70;62.20
76168;DHT22;64927;48.214;16.378;2023-05-25T01:12:31;15.70;62.20
76168;DHT22;64927;48.214;16.378;2023-05-25T01:14:59;15.70;62.30
76168;DHT22;64927;48.214;16.378;2023-05-25T01:17:26;15.60;62.60
76168;DHT22;64927;48.214;16.378;2023-05-25T01:19:53;15.50;62.80
76168;DHT22;64927;48.214;16.378;2023-05-25T01:22:34;15.60;62.80
76168;DHT22;64927;48.214;16.378;2023-05-25T01:25:08;15.60;62.60
76168;DHT22;64927;48.214;16.378;2023-05-25T01:27:44;15.60;62.80
76168;DHT22;64927;48.214;16.378;2023-05-25T01:30:13;15.50;62.90
76168;DHT22;64927;48.214;16.378;2023-05-25T01:32:43;15.60;62.50
76168;DHT22;64927;48.214;16.378;2023-05-25T01:35:12;15.60;62.50
76168;DHT22;64927;48.214;16.378;2023-05-25T01:37:47;15.80;62.20
76168;DHT22;64927;48.214;16.378;2023-05-25T01:40:13;15.70;63.30
76168;DHT22;64927;48.214;16.378;2023-05-25T01:42:40;15.60;62.60
76168;DHT22;64927;48.214;16.378;2023-05-25T01:45:06;15.60;62.60
76168;DHT22;64927;48.214;16.378;2023-05-25T01:53:09;15.50;63.10
76168;DHT22;64927;48.214;16.378;2023-05-25T01:55:41;15.50;63.00
76168;DHT22;64927;48.214;16.378;2023-05-25T01:58:07;15.40;63.20
76168;DHT22;64927;48.214;16.378;2023-05-25T02:00:34;15.40;63.30
76168;DHT22;64927;48.214;16.378;2023-05-25T02:03:01;15.50;63.10
76168;DHT22;64927;48.214;16.378;2023-05-25T02:05:28;15.40;63.40
76168;DHT22;64927;48.214;16.378;2023-05-25T02:07:53;15.40;63.20
76168;DHT22;64927;48.214;16.378;2023-05-25T02:10:21;15.40;63.20
76168;DHT22;64927;48.214;16.378;2023-05-25T02:12:47;15.40;63.00
76168;DHT22;64927;48.214;16.378;2023-05-25T02:15:13;15.40;63.10
76168;DHT22;64927;48.214;16.378;2023-05-25T02:17:39;15.40;63.00
76168;DHT22;64927;48.214;16.378;2023-05-25T02:20:06;15.40;62.90
76168;DHT22;64927;48.214;16.378;2023-05-25T02:22:32;15.60;62.50
76168;DHT22;64927;48.214;16.378;2023-05-25T02:24:58;15.50;62.50
76168;DHT22;64927;48.214;16.378;2023-05-25T02:27:24;15.40;62.60
76168;DHT22;64927;48.214;16.378;2023-05-25T02:29:50;15.40;62.80
76168;DHT22;64927;48.214;16.378;2023-05-25T02:32:17;15.40;62.80
76168;DHT22;64927;48.214;16.378;2023-05-25T02:34:43;15.40;62.60
76168;DHT22;64927;48.214;16.378;2023-05-25T02:37:08;15.50;62.50
76168;DHT22;64927;48.214;16.378;2023-05-25T02:39:34;15.60;62.20
76168;DHT22;64927;48.214;16.378;2023-05-25T02:41:59;15.70;61.60
76168;DHT22;64927;48.214;16.378;2023-05-25T02:44:25;15.70;61.80
76168;DHT22;64927;48.214;16.378;2023-05-25T02:46:51;15.60;62.00
76168;DHT22;64927;48.214;16.378;2023-05-25T02:49:17;15.50;62.30
76168;DHT22;64927;48.214;16.378;2023-05-25T02:51:42;15.50;62.20
76168;DHT22;64927;48.214;16.378;2023-05-25T02:54:10;15.50;62.40
76168;DHT22;64927;48.214;16.378;2023-05-25T02:56:36;15.60;62.50
76168;DHT22;64927;48.214;16.378;2023-05-25T02:59:01;15.50;62.70
76168;DHT22;64927;48.214;16.378;2023-05-25T03:01:27;15.40;63.00
76168;DHT22;64927;48.214;16.378;2023-05-25T03:03:55;15.40;62.80
76168;DHT22;64927;48.214;16.378;2023-05-25T03:06:21;15.50;62.80
76168;DHT22;64927;48.214;16.378;2023-05-25T03:08:47;15.50;62.70
76168;DHT22;64927;48.214;16.378;2023-05-25T03:11:13;15.50;62.60
76168;DHT22;64927;48.214;16.378;2023-05-25T03:13:39;15.50;62.80
76168;DHT22;64927;48.214;16.378;2023-05-25T03:16:05;15.40;63.20
76168;DHT22;64927;48.214;16.378;2023-05-25T03:18:30;15.40;63.10
76168;DHT22;64927;48.214;16.378;2023-05-25T03:20:56;15.40;64.30
76168;DHT22;64927;48.214;16.378;2023-05-25T03:23:21;15.30;63.50
76168;DHT22;64927;48.214;16.378;2023-05-25T03:25:50;15.40;63.20
76168;DHT22;64927;48.214;16.378;2023-05-25T03:28:15;15.50;63.10
76168;DHT22;64927;48.214;16.378;2023-05-25T03:30:41;15.40;63.30
76168;DHT22;64927;48.214;16.378;2023-05-25T03:33:07;15.40;63.60
76168;DHT22;64927;48.214;16.378;2023-05-25T03:35:34;15.30;63.90
76168;DHT22;64927;48.214;16.378;2023-05-25T03:38:01;15.30;63.60
76168;DHT22;64927;48.214;16.378;2023-05-25T03:40:26;15.30;63.70
76168;DHT22;64927;48.214;16.378;2023-05-25T03:42:52;15.40;63.50
76168;DHT22;64927;48.214;16.378;2023-05-25T03:45:17;15.50;63.40
76168;DHT22;64927;48.214;16.378;2023-05-25T03:47:43;15.60;63.00
76168;DHT22;64927;48.214;16.378;2023-05-25T03:50:10;15.60;62.70
76168;DHT22;64927;48.214;16.378;2023-05-25T03:52:36;15.60;62.80
76168;DHT22;64927;48.214;16.378;2023-05-25T03:55:01;15.60;63.10
76168;DHT22;64927;48.214;16.378;2023-05-25T03:57:29;15.60;63.00
76168;DHT22;64927;48.214;16.378;2023-05-25T03:59:57;15.80;62.60
76168;DHT22;64927;48.214;16.378;2023-05-25T04:02:23;15.90;62.30
76168;DHT22;64927;48.214;16.378;2023-05-25T04:04:48;16.00;62.10
76168;DHT22;64927;48.214;16.378;2023-05-25T04:07:17;15.80;62.30
76168;DHT22;64927;48.214;16.378;2023-05-25T04:09:45;15.80;62.10
76168;DHT22;64927;48.214;16.378;2023-05-25T04:12:13;16.00;62.00
76168;DHT22;64927;48.214;16.378;2023-05-25T04:14:41;16.00;61.60
76168;DHT22;64927;48.214;16.378;2023-05-25T04:17:07;16.10;61.60
76168;DHT22;64927;48.214;16.378;2023-05-25T04:19:32;16.10;61.50
76168;DHT22;64927;48.214;16.378;2023-05-25T04:21:58;16.10;61.10
76168;DHT22;64927;48.214;16.378;2023-05-25T04:24:26;16.10;61.00
76168;DHT22;64927;48.214;16.378;2023-05-25T04:26:52;16.10;61.00
76168;DHT22;64927;48.214;16.378;2023-05-25T04:29:17;16.20;60.80
76168;DHT22;64927;48.214;16.378;2023-05-25T04:31:45;16.30;60.40
76168;DHT22;64927;48.214;16.378;2023-05-25T04:34:13;16.30;60.50
76168;DHT22;64927;48.214;16.378;2023-05-25T04:36:39;16.30;59.80
76168;DHT22;64927;48.214;16.378;2023-05-25T04:39:07;16.00;60.00
76168;DHT22;64927;48.214;16.378;2023-05-25T04:41:34;16.20;60.10
76168;DHT22;64927;48.214;16.378;2023-05-25T04:43:59;16.40;59.50
76168;DHT22;64927;48.214;16.378;2023-05-25T04:46:28;16.40;59.20
76168;DHT22;64927;48.214;16.378;2023-05-25T04:48:56;16.40;58.50
76168;DHT22;64927;48.214;16.378;2023-05-25T04:51:24;16.30;58.80
76168;DHT22;64927;48.214;16.378;2023-05-25T04:53:49;16.40;58.60
76168;DHT22;64927;48.214;16.378;2023-05-25T04:56:15;16.30;57.90
76168;DHT22;64927;48.214;16.378;2023-05-25T04:58:42;16.30;58.30
76168;DHT22;64927;48.214;16.378;2023-05-25T05:01:10;16.20;58.50
76168;DHT22;64927;48.214;16.378;2023-05-25T05:03:38;16.30;58.10
76168;DHT22;64927;48.214;16.378;2023-05-25T05:06:04;16.50;57.70
76168;DHT22;64927;48.214;16.378;2023-05-25T05:08:30;16.40;58.00
76168;DHT22;64927;48.214;16.378;2023-05-25T05:10:58;16.40;58.00
76168;DHT22;64927;48.214;16.378;2023-05-25T05:13:24;16.60;57.10
76168;DHT22;64927;48.214;16.378;2023-05-25T05:15:49;16.80;57.40
76168;DHT22;64927;48.214;16.378;2023-05-25T05:18:15;16.90;56.20
76168;DHT22;64927;48.214;16.378;2023-05-25T05:20:41;16.70;57.00
76168;DHT22;64927;48.214;16.378;2023-05-25T05:23:09;16.60;57.20
76168;DHT22;64927;48.214;16.378;2023-05-25T05:25:35;16.50;57.70
76168;DHT22;64927;48.214;16.378;2023-05-25T05:28:02;16.80;57.20
76168;DHT22;64927;48.214;16.378;2023-05-25T05:30:31;16.80;56.40
76168;DHT22;64927;48.214;16.378;2023-05-25T05:32:56;17.00;56.20
76168;DHT22;64927;48.214;16.378;2023-05-25T05:35:22;17.00;56.00
76168;DHT22;64927;48.214;16.378;2023-05-25T05:37:48;17.00;56.10
76168;DHT22;64927;48.214;16.378;2023-05-25T05:40:13;17.20;56.00
76168;DHT22;64927;48.214;16.378;2023-05-25T05:42:39;17.30;55.30
76168;DHT22;64927;48.214;16.378;2023-05-25T05:45:05;17.30;55.10
76168;DHT22;64927;48.214;16.378;2023-05-25T05:47:31;17.20;55.10
76168;DHT22;64927;48.214;16.378;2023-05-25T05:49:57;17.20;55.50
76168;DHT22;64927;48.214;16.378;2023-05-25T05:52:23;17.50;55.10
76168;DHT22;64927;48.214;16.378;2023-05-25T05:54:48;17.60;56.30
76168;DHT22;64927;48.214;16.378;2023-05-25T05:57:14;17.50;54.30
76168;DHT22;64927;48.214;16.378;2023-05-25T05:59:39;17.50;54.30
76168;DHT22;64927;48.214;16.378;2023-05-25T06:02:05;17.50;54.60
76168;DHT22;64927;48.214;16.378;2023-05-25T06:04:33;17.70;54.70
76168;DHT22;64927;48.214;16.378;2023-05-25T06:06:59;18.30;54.30
76168;DHT22;64927;48.214;16.378;2023-05-25T06:09:25;18.70;52.60
76168;DHT22;64927;48.214;16.378;2023-05-25T06:11:51;19.00;50.60
76168;DHT22;64927;48.214;16.378;2023-05-25T06:14:16;19.00;51.40
76168;DHT22;64927;48.214;16.378;2023-05-25T06:16:42;19.40;51.40
76168;DHT22;64927;48.214;16.378;2023-05-25T06:19:08;19.70;49.60
76168;DHT22;64927;48.214;16.378;2023-05-25T06:21:34;20.20;47.90
76168;DHT22;64927;48.214;16.378;2023-05-25T06:23:59;20.30;47.00
76168;DHT22;64927;48.214;16.378;2023-05-25T06:26:25;20.80;45.80
76168;DHT22;64927;48.214;16.378;2023-05-25T06:28:51;20.90;45.70
76168;DHT22;64927;48.214;16.378;2023-05-25T06:31:17;21.00;45.50
76168;DHT22;64927;48.214;16.378;2023-05-25T06:33:43;21.30;46.00
76168;DHT22;64927;48.214;16.378;2023-05-25T06:36:09;21.70;44.50
76168;DHT22;64927;48.214;16.378;2023-05-25T06:38:35;21.50;43.90
76168;DHT22;64927;48.214;16.378;2023-05-25T06:41:01;21.90;44.10
76168;DHT22;64927;48.214;16.378;2023-05-25T06:43:29;21.70;43.90
76168;DHT22;64927;48.214;16.378;2023-05-25T06:45:56;21.60;44.80
76168;DHT22;64927;48.214;16.378;2023-05-25T06:48:22;21.90;43.40
76168;DHT22;64927;48.214;16.378;2023-05-25T06:50:48;22.20;43.80
76168;DHT22;64927;48.214;16.378;2023-05-25T06:53:13;22.20;42.70
76168;DHT22;64927;48.214;16.378;2023-05-25T06:55:39;21.80;43.90
76168;DHT22;64927;48.214;16.378;2023-05-25T06:58:05;21.90;43.60
76168;DHT22;64927;48.214;16.378;2023-05-25T07:00:33;22.00;43.10
76168;DHT22;64927;48.214;16.378;2023-05-25T07:02:59;22.40;42.60
76168;DHT22;64927;48.214;16.378;2023-05-25T07:05:27;22.60;41.50
76168;DHT22;64927;48.214;16.378;2023-05-25T07:07:52;22.50;42.10
76168;DHT22;64927;48.214;16.378;2023-05-25T07:10:18;22.20;43.50
76168;DHT22;64927;48.214;16.378;2023-05-25T07:12:43;22.30;43.00
76168;DHT22;64927;48.214;16.378;2023-05-25T07:15:09;22.20;43.40
76168;DHT22;64927;48.214;16.378;2023-05-25T07:17:35;22.90;41.70
76168;DHT22;64927;48.214;16.378;2023-05-25T07:20:01;22.60;42.10
76168;DHT22;64927;48.214;16.378;2023-05-25T07:22:30;22.90;41.60
76168;DHT22;64927;48.214;16.378;2023-05-25T07:24:58;23.80;40.20
76168;DHT22;64927;48.214;16.378;2023-05-25T07:27:24;23.50;40.30
76168;DHT22;64927;48.214;16.378;2023-05-25T07:29:50;23.70;40.40
76168;DHT22;64927;48.214;16.378;2023-05-25T07:32:18;23.80;40.00
76168;DHT22;64927;48.214;16.378;2023-05-25T07:34:43;23.90;38.90
76168;DHT22;64927;48.214;16.378;2023-05-25T07:37:09;23.50;41.00
76168;DHT22;64927;48.214;16.378;2023-05-25T07:39:35;22.90;40.70
76168;DHT22;64927;48.214;16.378;2023-05-25T07:42:00;23.50;39.50
76168;DHT22;64927;48.214;16.378;2023-05-25T07:44:27;23.30;40.20
76168;DHT22;64927;48.214;16.378;2023-05-25T07:46:53;23.00;40.40
76168;DHT22;64927;48.214;16.378;2023-05-25T07:49:19;22.80;41.50
76168;DHT22;64927;48.214;16.378;2023-05-25T07:51:47;23.50;40.20
76168;DHT22;64927;48.214;16.378;2023-05-25T07:54:13;23.80;39.60
76168;DHT22;64927;48.214;16.378;2023-05-25T07:56:38;24.00;39.30
76168;DHT22;64927;48.214;16.378;2023-05-25T07:59:06;24.30;38.50
76168;DHT22;64927;48.214;16.378;2023-05-25T08:01:35;23.80;38.40
76168;DHT22;64927;48.214;16.378;2023-05-25T08:04:01;24.20;38.40
76168;DHT22;64927;48.214;16.378;2023-05-25T08:06:26;24.20;37.50
76168;DHT22;64927;48.214;16.378;2023-05-25T08:08:54;24.10;37.90
76168;DHT22;64927;48.214;16.378;2023-05-25T08:11:23;23.80;38.10
76168;DHT22;64927;48.214;16.378;2023-05-25T08:13:51;23.90;38.90
76168;DHT22;64927;48.214;16.378;2023-05-25T08:16:20;24.20;38.40
76168;DHT22;64927;48.214;16.378;2023-05-25T08:18:45;24.40;37.00
76168;DHT22;64927;48.214;16.378;2023-05-25T08:21:11;24.20;38.00
76168;DHT22;64927;48.214;16.378;2023-05-25T08:23:39;24.50;37.30
76168;DHT22;64927;48.214;16.378;2023-05-25T08:26:07;24.30;37.60
76168;DHT22;64927;48.214;16.378;2023-05-25T08:28:33;24.70;36.80
76168;DHT22;64927;48.214;16.378;2023-05-25T08:30:59;24.40;38.00
76168;DHT22;64927;48.214;16.378;2023-05-25T08:33:24;24.90;36.40
76168;DHT22;64927;48.214;16.378;2023-05-25T08:35:53;24.50;37.50
76168;DHT22;64927;48.214;16.378;2023-05-25T08:38:21;23.80;38.70
76168;DHT22;64927;48.214;16.378;2023-05-25T08:41:05;24.30;39.00
76168;DHT22;64927;48.214;16.378;2023-05-25T08:43:31;24.40;37.70
76168;DHT22;64927;48.214;16.378;2023-05-25T08:46:03;24.80;37.40
76168;DHT22;64927;48.214;16.378;2023-05-25T08:48:30;25.10;36.80
76168;DHT22;64927;48.214;16.378;2023-05-25T08:51:03;25.00;36.80
76168;DHT22;64927;48.214;16.378;2023-05-25T08:53:39;25.40;35.80
76168;DHT22;64927;48.214;16.378;2023-05-25T08:56:24;25.40;36.40
76168;DHT22;64927;48.214;16.378;2023-05-25T08:59:04;25.30;36.20
76168;DHT22;64927;48.214;16.378;2023-05-25T09:01:32;24.30;37.10
76168;DHT22;64927;48.214;16.378;2023-05-25T09:04:02;24.30;38.20
76168;DHT22;64927;48.214;16.378;2023-05-25T09:06:28;24.80;36.70
76168;DHT22;64927;48.214;16.378;2023-05-25T09:08:57;25.10;36.90
76168;DHT22;64927;48.214;16.378;2023-05-25T09:11:23;24.90;36.50
76168;DHT22;64927;48.214;16.378;2023-05-25T09:13:56;25.10;37.30
76168;DHT22;64927;48.214;16.378;2023-05-25T09:16:25;25.30;36.90
76168;DHT22;64927;48.214;16.378;2023-05-25T09:18:51;25.40;35.60
76168;DHT22;64927;48.214;16.378;2023-05-25T09:21:16;25.00;37.00
76168;DHT22;64927;48.214;16.378;2023-05-25T09:23:42;25.10;37.00
76168;DHT22;64927;48.214;16.378;2023-05-25T09:26:12;24.90;37.00
76168;DHT22;64927;48.214;16.378;2023-05-25T09:28:47;24.90;36.90
76168;DHT22;64927;48.214;16.378;2023-05-25T09:31:14;24.80;37.10
76168;DHT22;64927;48.214;16.378;2023-05-25T09:33:43;25.30;36.30
76168;DHT22;64927;48.214;16.378;2023-05-25T09:36:11;25.10;36.30
76168;DHT22;64927;48.214;16.378;2023-05-25T09:38:39;25.10;36.60
76168;DHT22;64927;48.214;16.378;2023-05-25T09:41:08;25.20;36.70
76168;DHT22;64927;48.214;16.378;2023-05-25T09:43:34;25.30;36.60
76168;DHT22;64927;48.214;16.378;2023-05-25T09:46:00;25.60;36.30
76168;DHT22;64927;48.214;16.378;2023-05-25T09:48:26;25.30;36.20
76168;DHT22;64927;48.214;16.378;2023-05-25T09:50:53;25.10;36.20
76168;DHT22;64927;48.214;16.378;2023-05-25T09:53:21;25.10;36.50
76168;DHT22;64927;48.214;16.378;2023-05-25T09:55:50;25.00;37.10
76168;DHT22;64927;48.214;16.378;2023-05-25T09:58:16;25.30;36.40
76168;DHT22;64927;48.214;16.378;2023-05-25T10:00:44;24.70;36.70
76168;DHT22;64927;48.214;16.378;2023-05-25T10:03:10;24.80;37.50
76168;DHT22;64927;48.214;16.378;2023-05-25T10:05:39;24.50;38.10
76168;DHT22;64927;48.214;16.378;2023-05-25T10:08:05;24.80;38.40
76168;DHT22;64927;48.214;16.378;2023-05-25T10:10:31;24.80;37.90
76168;DHT22;64927;48.214;16.378;2023-05-25T10:12:57;24.90;37.20
76168;DHT22;64927;48.214;16.378;2023-05-25T10:15:25;24.50;37.30
76168;DHT22;64927;48.214;16.378;2023-05-25T10:17:53;24.10;38.40
76168;DHT22;64927;48.214;16.378;2023-05-25T10:20:23;23.90;39.50
76168;DHT22;64927;48.214;16.378;2023-05-25T10:22:59;23.80;39.40
76168;DHT22;64927;48.214;16.378;2023-05-25T10:25:28;23.50;40.80
76168;DHT22;64927;48.214;16.378;2023-05-25T10:28:04;23.60;40.50
76168;DHT22;64927;48.214;16.378;2023-05-25T10:30:32;23.80;39.60
76168;DHT22;64927;48.214;16.378;2023-05-25T10:33:02;23.80;39.90
76168;DHT22;64927;48.214;16.378;2023-05-25T10:35:27;23.40;41.10
76168;DHT22;64927;48.214;16.378;2023-05-25T10:37:56;23.30;41.40
76168;DHT22;64927;48.214;16.378;2023-05-25T10:40:23;23.20;41.90
76168;DHT22;64927;48.214;16.378;2023-05-25T10:42:52;23.50;41.60
76168;DHT22;64927;48.214;16.378;2023-05-25T10:45:17;23.70;41.00
76168;DHT22;64927;48.214;16.378;2023-05-25T10:47:46;23.70;41.00
76168;DHT22;64927;48.214;16.378;2023-05-25T10:52:58;23.60;41.40
76168;DHT22;64927;48.214;16.378;2023-05-25T10:55:27;23.50;40.90
76168;DHT22;64927;48.214;16.378;2023-05-25T10:58:15;23.40;41.50
76168;DHT22;64927;48.214;16.378;2023-05-25T11:00:42;23.10;41.90
76168;DHT22;64927;48.214;16.378;2023-05-25T11:03:08;22.90;41.90
76168;DHT22;64927;48.214;16.378;2023-05-25T11:05:40;23.10;41.90
76168;DHT22;64927;48.214;16.378;2023-05-25T11:08:16;23.10;42.30
76168;DHT22;64927;48.214;16.378;2023-05-25T11:13:22;23.00;42.20
76168;DHT22;64927;48.214;16.378;2023-05-25T11:16:07;23.20;41.80
76168;DHT22;64927;48.214;16.378;2023-05-25T11:18:40;23.10;41.80
76168;DHT22;64927;48.214;16.378;2023-05-25T11:21:15;23.10;42.10
76168;DHT22;64927;48.214;16.378;2023-05-25T11:23:53;23.50;41.70
76168;DHT22;64927;48.214;16.378;2023-05-25T11:26:22;23.70;40.80
76168;DHT22;64927;48.214;16.378;2023-05-25T11:28:50;23.60;40.60
76168;DHT22;64927;48.214;16.378;2023-05-25T11:31:30;23.20;42.10
76168;DHT22;64927;48.214;16.378;2023-05-25T11:34:02;23.20;41.90
76168;DHT22;64927;48.214;16.378;2023-05-25T11:36:31;23.40;42.30
76168;DHT22;64927;48.214;16.378;2023-05-25T11:38:59;23.30;41.70
76168;DHT22;64927;48.214;16.378;2023-05-25T11:41:29;23.30;41.40
76168;DHT22;64927;48.214;16.378;2023-05-25T11:44:02;23.20;41.70
76168;DHT22;64927;48.214;16.378;2023-05-25T11:46:32;23.20;42.10
76168;DHT22;64927;48.214;16.378;2023-05-25T11:48:59;23.20;41.60
76168;DHT22;64927;48.214;16.378;2023-05-25T11:51:28;23.20;41.40
76168;DHT22;64927;48.214;16.378;2023-05-25T11:53:57;23.20;41.70
76168;DHT22;64927;48.214;16.378;2023-05-25T11:56:23;23.30;41.30
76168;DHT22;64927;48.214;16.378;2023-05-25T11:58:49;23.10;42.00
76168;DHT22;64927;48.214;16.378;2023-05-25T12:01:19;22.90;43.50
76168;DHT22;64927;48.214;16.378;2023-05-25T12:03:52;23.20;42.80
76168;DHT22;64927;48.214;16.378;2023-05-25T12:08:54;23.30;42.90
76168;DHT22;64927;48.214;16.378;2023-05-25T12:11:33;23.10;43.10
76168;DHT22;64927;48.214;16.378;2023-05-25T12:14:03;23.00;43.00
76168;DHT22;64927;48.214;16.378;2023-05-25T12:16:37;22.80;43.70
76168;DHT22;64927;48.214;16.378;2023-05-25T12:19:03;23.10;43.20
76168;DHT22;64927;48.214;16.378;2023-05-25T12:21:30;23.40;42.20
76168;DHT22;64927;48.214;16.378;2023-05-25T12:23:57;23.30;42.60
76168;DHT22;64927;48.214;16.378;2023-05-25T12:26:26;23.20;42.70
76168;DHT22;64927;48.214;16.378;2023-05-25T12:29:04;23.00;43.00
76168;DHT22;64927;48.214;16.378;2023-05-25T12:31:39;23.20;43.30
76168;DHT22;64927;48.214;16.378;2023-05-25T12:34:08;23.30;43.00
76168;DHT22;64927;48.214;16.378;2023-05-25T12:36:41;22.90;43.90
76168;DHT22;64927;48.214;16.378;2023-05-25T12:39:11;23.10;43.90
76168;DHT22;64927;48.214;16.378;2023-05-25T12:41:50;23.20;43.50
76168;DHT22;64927;48.214;16.378;2023-05-25T12:44:31;23.00;44.00
76168;DHT22;64927;48.214;16.378;2023-05-25T12:47:20;23.30;43.60
76168;DHT22;64927;48.214;16.378;2023-05-25T12:49:52;23.40;43.10
76168;DHT22;64927;48.214;16.378;2023-05-25T12:52:35;23.50;42.50
76168;DHT22;64927;48.214;16.378;2023-05-25T12:55:25;23.60;42.50
76168;DHT22;64927;48.214;16.378;2023-05-25T12:58:25;23.50;42.60
76168;DHT22;64927;48.214;16.378;2023-05-25T13:00:53;23.20;44.00
76168;DHT22;64927;48.214;16.378;2023-05-25T13:03:23;23.30;43.60
76168;DHT22;64927;48.214;16.378;2023-05-25T13:05:49;23.30;44.20
76168;DHT22;64927;48.214;16.378;2023-05-25T13:08:16;23.30;43.60
76168;DHT22;64927;48.214;16.378;2023-05-25T13:10:44;23.40;43.30
76168;DHT22;64927;48.214;16.378;2023-05-25T13:13:12;23.20;43.60
76168;DHT22;64927;48.214;16.378;2023-05-25T13:15:38;23.20;43.60
76168;DHT22;64927;48.214;16.378;2023-05-25T13:18:04;23.10;43.80
76168;DHT22;64927;48.214;16.378;2023-05-25T13:20:29;23.10;44.10
76168;DHT22;64927;48.214;16.378;2023-05-25T13:23:00;23.20;43.90
76168;DHT22;64927;48.214;16.378;2023-05-25T13:25:27;23.20;43.90
76168;DHT22;64927;48.214;16.378;2023-05-25T13:27:54;23.30;44.00
76168;DHT22;64927;48.214;16.378;2023-05-25T13:30:24;23.40;43.90
76168;DHT22;64927;48.214;16.378;2023-05-25T13:32:51;23.60;42.80
76168;DHT22;64927;48.214;16.378;2023-05-25T13:35:19;23.50;43.30
76168;DHT22;64927;48.214;16.378;2023-05-25T13:38:03;23.70;43.40
76168;DHT22;64927;48.214;16.378;2023-05-25T13:40:29;23.60;43.10
76168;DHT22;64927;48.214;16.378;2023-05-25T13:42:55;23.60;43.50
76168;DHT22;64927;48.214;16.378;2023-05-25T13:45:20;23.80;43.10
76168;DHT22;64927;48.214;16.378;2023-05-25T13:47:46;23.70;43.10
76168;DHT22;64927;48.214;16.378;2023-05-25T13:50:12;23.80;43.20
76168;DHT22;64927;48.214;16.378;2023-05-25T13:52:37;23.80;42.90
76168;DHT22;64927;48.214;16.378;2023-05-25T13:55:03;23.60;43.60
76168;DHT22;64927;48.214;16.378;2023-05-25T13:57:34;23.60;43.80
76168;DHT22;64927;48.214;16.378;2023-05-25T13:59:59;23.70;43.40
76168;DHT22;64927;48.214;16.378;2023-05-25T14:02:25;23.70;43.30
76168;DHT22;64927;48.214;16.378;2023-05-25T14:04:50;23.80;43.30
76168;DHT22;64927;48.214;16.378;2023-05-25T14:07:16;23.60;43.30
76168;DHT22;64927;48.214;16.378;2023-05-25T14:09:44;23.60;43.50
76168;DHT22;64927;48.214;16.378;2023-05-25T14:12:09;23.60;44.50
76168;DHT22;64927;48.214;16.378;2023-05-25T14:14:35;23.80;43.40
76168;DHT22;64927;48.214;16.378;2023-05-25T14:17:01;23.90;43.10
76168;DHT22;64927;48.214;16.378;2023-05-25T14:19:29;23.80;43.20
76168;DHT22;64927;48.214;16.378;2023-05-25T14:21:55;23.70;43.10
76168;DHT22;64927;48.214;16.378;2023-05-25T14:24:23;23.60;43.50
76168;DHT22;64927;48.214;16.378;2023-05-25T14:26:49;23.80;43.70
76168;DHT22;64927;48.214;16.378;2023-05-25T14:29:17;23.80;43.40
76168;DHT22;64927;48.214;16.378;2023-05-25T14:31:42;23.80;43.50
76168;DHT22;64927;48.214;16.378;2023-05-25T14:34:10;23.90;43.80
76168;DHT22;64927;48.214;16.378;2023-05-25T14:36:38;24.20;43.30
76168;DHT22;64927;48.214;16.378;2023-05-25T14:39:08;24.30;42.70
76168;DHT22;64927;48.214;16.378;2023-05-25T14:41:36;24.00;43.50
76168;DHT22;64927;48.214;16.378;2023-05-25T14:44:02;23.90;43.50
76168;DHT22;64927;48.214;16.378;2023-05-25T14:46:27;23.70;43.80
76168;DHT22;64927;48.214;16.378;2023-05-25T14:48:53;23.70;43.70
76168;DHT22;64927;48.214;16.378;2023-05-25T14:51:18;23.60;44.50
76168;DHT22;64927;48.214;16.378;2023-05-25T14:53:51;23.40;44.40
76168;DHT22;64927;48.214;16.378;2023-05-25T14:56:20;23.40;44.70
76168;DHT22;64927;48.214;16.378;2023-05-25T14:58:46;23.50;44.50
76168;DHT22;64927;48.214;16.378;2023-05-25T15:01:14;23.50;44.50
76168;DHT22;64927;48.214;16.378;2023-05-25T15:03:42;23.50;44.70
76168;DHT22;64927;48.214;16.378;2023-05-25T15:06:08;23.60;44.60
76168;DHT22;64927;48.214;16.378;2023-05-25T15:08:34;23.70;44.60
76168;DHT22;64927;48.214;16.378;2023-05-25T15:11:02;23.70;44.50
76168;DHT22;64927;48.214;16.378;2023-05-25T15:13:29;23.80;43.70
76168;DHT22;64927;48.214;16.378;2023-05-25T15:15:55;23.70;44.00
76168;DHT22;64927;48.214;16.378;2023-05-25T15:18:22;23.50;44.50
76168;DHT22;64927;48.214;16.378;2023-05-25T15:20:47;23.40;44.50
76168;DHT22;64927;48.214;16.378;2023-05-25T15:23:13;23.40;44.90
76168;DHT22;64927;48.214;16.378;2023-05-25T15:25:39;23.50;44.60
76168;DHT22;64927;48.214;16.378;2023-05-25T15:28:04;23.40;44.90
76168;DHT22;64927;48.214;16.378;2023-05-25T15:30:32;23.50;44.80
76168;DHT22;64927;48.214;16.378;2023-05-25T15:33:03;23.40;44.90